createdAt,value
2023-01-25T04:30:50.755Z,94.90
2023-01-25T04:41:29.227Z,95.60
2023-01-25T04:52:06.290Z,95.20
2023-01-25T05:02:42.534Z,93.90
2023-01-25T05:13:18.552Z,94.30
2023-01-25T05:23:55.443Z,95.50
2023-01-25T05:34:33.055Z,95.40
2023-01-25T05:45:10.332Z,95.50
2023-01-25T05:55:48.771Z,95.00
2023-01-25T06:06:26.029Z,95.00
2023-01-25T06:17:01.932Z,92.60
2023-01-25T06:28:05.895Z,95.50
2023-01-25T06:38:42.157Z,93.90
2023-01-25T06:49:17.896Z,97.30
2023-01-25T06:59:53.469Z,95.50
2023-01-25T07:10:29.074Z,99.90
2023-01-25T07:21:06.418Z,99.40
2023-01-25T07:31:42.718Z,99.90
2023-01-25T07:42:18.554Z,99.90
2023-01-25T07:53:01.141Z,96.90
2023-01-25T08:03:37.141Z,93.30
2023-01-25T08:14:12.549Z,91.10
2023-01-25T08:24:48.307Z,93.10
2023-01-25T08:35:23.843Z,95.50
2023-01-25T08:45:59.609Z,94.90
2023-01-25T08:56:37.843Z,94.20
2023-01-25T09:07:13.530Z,90.00
2023-01-25T09:17:53.741Z,91.30
2023-01-25T09:28:30.560Z,93.30
2023-01-25T09:39:06.430Z,92.30
2023-01-25T09:49:45.005Z,96.20
2023-01-25T10:00:27.845Z,94.20
2023-01-25T10:11:21.529Z,97.10
2023-01-25T10:22:18.630Z,94.00
2023-01-25T10:33:13.395Z,91.10
2023-01-25T10:44:08.969Z,90.30
2023-01-25T10:54:44.884Z,88.90
2023-01-25T11:05:29.567Z,87.80
2023-01-25T11:16:27.723Z,87.70
2023-01-25T11:27:24.765Z,88.40
2023-01-25T11:38:15.851Z,90.10
2023-01-25T11:48:54.079Z,92.60
2023-01-25T11:59:57.587Z,86.80
2023-01-25T12:10:56.467Z,83.00
2023-01-25T12:22:01.365Z,90.00
2023-01-25T12:33:08.905Z,88.30
2023-01-25T12:44:13.213Z,85.40
2023-01-25T12:54:50.154Z,86.00
2023-01-25T13:05:37.035Z,85.40
2023-01-25T13:16:36.325Z,83.70
2023-01-25T13:27:26.977Z,84.90
2023-01-25T13:38:08.728Z,83.10
2023-01-25T13:48:59.756Z,86.30
2023-01-25T13:59:35.164Z,91.00
2023-01-25T14:10:24.223Z,83.80
2023-01-25T14:21:10.487Z,83.40
2023-01-25T14:31:50.810Z,80.40
2023-01-25T14:42:26.533Z,79.30
2023-01-25T14:53:24.419Z,79.10
2023-01-25T15:04:00.110Z,82.20
2023-01-25T15:14:51.103Z,84.30
2023-01-25T15:25:27.451Z,82.50
2023-01-25T15:36:02.985Z,82.70
2023-01-25T15:46:41.869Z,84.20
2023-01-25T15:57:29.219Z,83.30
2023-01-25T16:08:05.163Z,81.80
2023-01-25T16:18:40.556Z,82.20
2023-01-25T16:29:16.316Z,80.80
2023-01-25T16:39:53.579Z,80.60
2023-01-25T16:50:29.537Z,74.60
2023-01-25T17:01:09.992Z,72.30
2023-01-25T17:11:45.953Z,73.70
2023-01-25T17:22:21.552Z,71.80
2023-01-25T17:32:57.208Z,74.20
2023-01-25T17:43:34.573Z,71.70
2023-01-25T17:54:10.664Z,71.70
2023-01-25T18:04:46.463Z,73.00
2023-01-25T18:15:23.478Z,75.90
2023-01-25T18:25:58.934Z,78.70
2023-01-25T18:36:34.692Z,76.00
2023-01-25T18:47:13.657Z,78.60
2023-01-25T18:57:49.337Z,78.50
2023-01-25T19:08:25.684Z,74.30
2023-01-25T19:19:01.270Z,72.80
2023-01-25T19:29:37.101Z,75.90
2023-01-25T19:40:14.812Z,75.40
2023-01-25T19:50:50.332Z,82.00
2023-01-25T20:01:29.396Z,81.30
2023-01-25T20:12:07.809Z,77.10
2023-01-25T20:22:43.307Z,79.40
2023-01-25T20:33:18.684Z,80.70
2023-01-25T20:44:04.011Z,78.70
2023-01-25T20:54:41.540Z,82.50
2023-01-25T21:05:17.346Z,83.10
2023-01-25T21:16:17.765Z,86.80
2023-01-25T21:26:53.479Z,90.00
2023-01-25T21:37:29.168Z,90.90
2023-01-25T21:48:05.205Z,88.40
2023-01-25T21:58:40.606Z,89.00
2023-01-25T22:09:16.675Z,89.50
2023-01-25T22:19:52.453Z,89.60
